Time;durP1;ratioP1;P1;durP2;ratioP2;P2;SDS_P1;SDS_P2;PMS_P1;PMS_P2;Temp;Humidity;BMP_temperature;BMP_pressure;BME280_temperature;BME280_humidity;BME280_pressure;Samples;Min_cycle;Max_cycle;Signal;HPM_P1;HPM_P2
2022/07/23 00:01:05;;;;;;;1.30;1.30;;;23.60;99.90;;;;;;5088924;28;20226;-64
2022/07/23 00:03:32;;;;;;;1.33;1.33;;;23.50;99.90;;;;;;5103432;28;20231;-64
2022/07/23 00:05:58;;;;;;;1.23;1.23;;;23.60;99.90;;;;;;5102437;28;20664;-65
2022/07/23 00:08:25;;;;;;;1.40;1.30;;;23.60;99.90;;;;;;5096740;28;20225;-64
2022/07/23 00:13:29;;;;;;;1.30;1.30;;;23.60;99.90;;;;;;5056088;28;20598;-61
2022/07/23 00:15:56;;;;;;;1.33;1.33;;;23.60;99.90;;;;;;5056433;28;20200;-60
2022/07/23 00:18:23;;;;;;;1.40;1.30;;;23.60;99.90;;;;;;5054341;28;20644;-62
2022/07/23 00:20:50;;;;;;;1.10;1.10;;;23.50;99.90;;;;;;5054514;28;20227;-60
2022/07/23 00:23:17;;;;;;;1.20;1.20;;;23.50;99.90;;;;;;5051082;28;20200;-62
2022/07/23 00:25:45;;;;;;;1.33;1.33;;;23.50;99.90;;;;;;5048954;28;20200;-62
2022/07/23 00:28:12;;;;;;;1.20;1.20;;;23.60;99.90;;;;;;5051127;28;20592;-62
2022/07/23 00:30:41;;;;;;;1.20;1.20;;;23.60;99.90;;;;;;5052114;28;20572;-61
2022/07/23 00:33:08;;;;;;;1.40;1.40;;;23.60;99.90;;;;;;5053942;28;20226;-61
2022/07/23 00:35:37;;;;;;;1.52;1.40;;;23.60;99.90;;;;;;5055315;28;20228;-61
2022/07/23 00:38:05;;;;;;;1.20;1.20;;;23.60;99.90;;;;;;5054664;28;20202;-61
2022/07/23 00:40:32;;;;;;;1.20;1.20;;;23.50;99.90;;;;;;5054708;28;20223;-61
2022/07/23 00:42:59;;;;;;;1.20;1.20;;;23.60;99.90;;;;;;5052846;28;20307;-61
2022/07/23 00:45:27;;;;;;;1.10;1.10;;;23.60;99.90;;;;;;5052266;28;20208;-61
2022/07/23 00:47:55;;;;;;;1.05;1.05;;;23.60;99.90;;;;;;5052126;28;20203;-62
2022/07/23 00:50:22;;;;;;;1.20;1.20;;;23.60;99.90;;;;;;5052198;28;20192;-61
2022/07/23 00:52:49;;;;;;;1.02;1.02;;;23.60;99.90;;;;;;5052592;28;20389;-61
2022/07/23 00:55:16;;;;;;;1.23;1.23;;;23.60;99.90;;;;;;5051784;28;20240;-61
2022/07/23 00:57:44;;;;;;;1.10;1.10;;;23.60;99.90;;;;;;5052231;28;20286;-61
2022/07/23 01:00:13;;;;;;;1.30;1.20;;;23.50;99.90;;;;;;5052064;28;20227;-61
2022/07/23 01:02:40;;;;;;;1.05;1.05;;;23.50;99.90;;;;;;5051642;28;20220;-61
2022/07/23 01:05:09;;;;;;;1.20;1.20;;;23.50;99.90;;;;;;5052040;28;20287;-61
2022/07/23 01:07:37;;;;;;;1.10;1.10;;;23.40;99.90;;;;;;5052036;28;20729;-61
2022/07/23 01:10:04;;;;;;;1.10;1.10;;;23.40;99.90;;;;;;5052587;28;20234;-61
2022/07/23 01:12:31;;;;;;;1.10;1.10;;;23.30;99.90;;;;;;5052334;28;20326;-61
2022/07/23 01:14:59;;;;;;;1.20;1.20;;;23.20;99.90;;;;;;5052812;28;20286;-61
2022/07/23 01:17:26;;;;;;;1.42;1.42;;;23.10;99.90;;;;;;5053501;28;20311;-61
2022/07/23 01:19:53;;;;;;;1.40;1.40;;;23.00;99.90;;;;;;5052331;28;20315;-60
2022/07/23 01:22:22;;;;;;;1.20;1.20;;;22.80;99.90;;;;;;5051637;28;20224;-60
2022/07/23 01:24:50;;;;;;;1.10;1.10;;;22.80;99.90;;;;;;5049657;28;20200;-60
2022/07/23 01:27:19;;;;;;;1.20;1.20;;;22.80;99.90;;;;;;5051573;28;20196;-60
2022/07/23 01:29:46;;;;;;;1.20;1.20;;;22.80;99.90;;;;;;5051514;28;20294;-60
2022/07/23 01:32:13;;;;;;;1.10;1.10;;;22.80;99.90;;;;;;5051014;28;20216;-61
2022/07/23 01:34:40;;;;;;;1.03;1.03;;;22.70;99.90;;;;;;5051114;28;20246;-60
2022/07/23 01:37:07;;;;;;;1.13;1.13;;;22.70;99.90;;;;;;5051300;28;20204;-60
2022/07/23 01:39:34;;;;;;;1.25;1.25;;;22.70;99.90;;;;;;5051771;28;20255;-62
2022/07/23 01:42:02;;;;;;;1.38;1.25;;;22.60;99.90;;;;;;5050921;28;20298;-60
2022/07/23 01:44:29;;;;;;;1.20;1.20;;;22.50;99.90;;;;;;5051153;28;20299;-62
2022/07/23 01:46:57;;;;;;;2.67;1.27;;;22.50;99.90;;;;;;5051385;28;20204;-61
2022/07/23 01:49:24;;;;;;;1.38;1.38;;;22.50;99.90;;;;;;5051306;28;20200;-62
2022/07/23 01:52:06;;;;;;;1.10;1.10;;;22.40;99.90;;;;;;5051191;28;20253;-61
2022/07/23 01:54:34;;;;;;;1.02;1.02;;;22.40;99.90;;;;;;5050321;28;20195;-61
2022/07/23 01:57:03;;;;;;;1.40;1.30;;;22.40;99.90;;;;;;5051164;28;20202;-62
2022/07/23 01:59:30;;;;;;;1.00;1.00;;;22.30;99.90;;;;;;5051282;28;20224;-62
2022/07/23 02:01:57;;;;;;;1.00;1.00;;;22.30;99.90;;;;;;5050614;28;20521;-62
2022/07/23 02:04:25;;;;;;;1.45;1.35;;;22.20;99.90;;;;;;5050919;28;20304;-61
2022/07/23 02:06:52;;;;;;;1.20;1.20;;;22.20;99.90;;;;;;5050679;28;20572;-61
2022/07/23 02:09:19;;;;;;;1.20;1.20;;;22.10;99.90;;;;;;5050702;28;20221;-62
2022/07/23 02:11:46;;;;;;;1.23;1.23;;;22.10;99.90;;;;;;5049873;28;20245;-62
2022/07/23 02:14:14;;;;;;;1.10;1.10;;;22.00;99.90;;;;;;5050846;28;20227;-62
2022/07/23 02:16:41;;;;;;;1.20;1.20;;;22.00;99.90;;;;;;5050991;28;20196;-62
2022/07/23 02:19:08;;;;;;;1.02;1.02;;;21.90;99.90;;;;;;5051096;28;20210;-61
2022/07/23 02:21:35;;;;;;;1.25;1.20;;;21.90;99.90;;;;;;5050250;28;20234;-61
2022/07/23 02:24:02;;;;;;;1.30;1.20;;;21.80;99.90;;;;;;5049431;28;20199;-61
2022/07/23 02:26:29;;;;;;;1.20;1.20;;;21.90;99.90;;;;;;5049900;28;20391;-61
2022/07/23 02:28:56;;;;;;;1.00;1.00;;;21.90;99.90;;;;;;5047920;28;20204;-61
2022/07/23 02:31:24;;;;;;;1.10;1.10;;;21.90;99.90;;;;;;5051163;28;20216;-61
2022/07/23 02:33:51;;;;;;;1.10;1.10;;;22.00;99.90;;;;;;5051253;28;20204;-62
2022/07/23 02:36:17;;;;;;;1.25;1.20;;;22.00;99.90;;;;;;5050493;28;20223;-61
2022/07/23 02:38:44;;;;;;;1.45;1.30;;;21.90;99.90;;;;;;5050029;28;20208;-61
2022/07/23 02:41:11;;;;;;;1.30;1.30;;;21.90;99.90;;;;;;5050206;28;20224;-61
2022/07/23 02:43:38;;;;;;;1.30;1.20;;;21.90;99.90;;;;;;5051109;28;20580;-61
2022/07/23 02:46:05;;;;;;;1.10;1.10;;;21.80;99.90;;;;;;5050762;28;20210;-60
2022/07/23 02:48:33;;;;;;;1.23;1.23;;;21.80;99.90;;;;;;5050027;28;20231;-61
2022/07/23 02:51:00;;;;;;;1.17;1.17;;;21.70;99.90;;;;;;5050016;28;20200;-61
2022/07/23 02:53:27;;;;;;;1.23;1.23;;;21.70;99.90;;;;;;5050246;28;20220;-60
2022/07/23 02:55:53;;;;;;;1.15;1.15;;;21.60;99.90;;;;;;5049797;28;20230;-60
2022/07/23 02:58:21;;;;;;;1.20;1.20;;;21.50;99.90;;;;;;5050373;28;21365;-61
2022/07/23 03:00:48;;;;;;;1.25;1.25;;;21.50;99.90;;;;;;5049981;28;20648;-61
2022/07/23 03:03:15;;;;;;;1.00;1.00;;;21.50;99.90;;;;;;5050070;28;20745;-60
2022/07/23 03:05:43;;;;;;;1.23;1.20;;;21.50;99.90;;;;;;5042338;28;20200;-61
2022/07/23 03:08:09;;;;;;;1.20;1.20;;;21.50;99.90;;;;;;5050592;28;20291;-61
2022/07/23 03:10:36;;;;;;;1.30;1.30;;;21.50;99.90;;;;;;5050318;28;20621;-61
2022/07/23 03:13:03;;;;;;;1.20;1.20;;;21.50;99.90;;;;;;5050181;28;20228;-61
2022/07/23 03:15:30;;;;;;;1.10;1.10;;;21.50;99.90;;;;;;5050494;28;20299;-61
2022/07/23 03:17:57;;;;;;;1.15;1.15;;;21.50;99.90;;;;;;5049928;28;20200;-61
2022/07/23 03:20:24;;;;;;;1.30;1.30;;;21.40;99.90;;;;;;5049756;28;20252;-61
2022/07/23 03:22:52;;;;;;;1.20;1.20;;;21.40;99.90;;;;;;5053289;28;20219;-61
2022/07/23 03:25:19;;;;;;;1.10;1.10;;;21.30;99.90;;;;;;5052847;28;20552;-61
2022/07/23 03:27:46;;;;;;;1.30;1.30;;;21.40;99.90;;;;;;5054220;28;20199;-61
2022/07/23 03:30:13;;;;;;;1.52;1.42;;;21.40;99.90;;;;;;5054173;28;20547;-61
2022/07/23 03:32:40;;;;;;;1.30;1.20;;;21.40;99.90;;;;;;5053451;28;20704;-61
2022/07/23 03:35:07;;;;;;;1.20;1.20;;;21.30;99.90;;;;;;5053626;28;20235;-61
2022/07/23 03:37:34;;;;;;;1.20;1.20;;;21.40;99.90;;;;;;5054168;28;20307;-61
2022/07/23 03:40:03;;;;;;;2.97;1.30;;;21.40;99.90;;;;;;5053901;28;20456;-61
2022/07/23 03:42:30;;;;;;;1.10;1.10;;;21.40;99.90;;;;;;5053433;28;20232;-61
2022/07/23 03:44:57;;;;;;;1.17;1.17;;;21.40;99.90;;;;;;5053001;28;20744;-61
2022/07/23 03:47:24;;;;;;;1.30;1.30;;;21.40;99.90;;;;;;5054076;28;20279;-61
2022/07/23 03:49:51;;;;;;;1.00;1.00;;;21.40;99.90;;;;;;5054378;28;20296;-61
2022/07/23 03:52:17;;;;;;;1.10;1.10;;;21.40;99.90;;;;;;5053072;28;20248;-61
2022/07/23 03:54:44;;;;;;;1.25;1.25;;;21.30;99.90;;;;;;5052937;28;20210;-61
2022/07/23 03:57:12;;;;;;;1.23;1.23;;;21.30;99.90;;;;;;5053591;28;20216;-61
2022/07/23 03:59:39;;;;;;;1.40;1.30;;;21.30;99.90;;;;;;5052763;28;20204;-61
2022/07/23 04:02:06;;;;;;;1.20;1.20;;;21.30;99.90;;;;;;5052540;28;20231;-61
2022/07/23 04:04:33;;;;;;;1.10;1.10;;;21.30;99.90;;;;;;5053228;28;20208;-61
2022/07/23 04:07:01;;;;;;;1.20;1.20;;;21.30;99.90;;;;;;5053325;28;20218;-62
2022/07/23 04:09:28;;;;;;;1.20;1.20;;;21.30;99.90;;;;;;5052984;28;20208;-62
2022/07/23 04:11:54;;;;;;;1.00;1.00;;;21.30;99.90;;;;;;5052913;28;20758;-61
2022/07/23 04:14:23;;;;;;;1.10;1.10;;;21.30;99.90;;;;;;5051830;28;20618;-61
2022/07/23 04:16:49;;;;;;;1.15;1.10;;;21.30;99.90;;;;;;5052569;28;20207;-61
2022/07/23 04:19:16;;;;;;;1.10;1.10;;;21.30;99.90;;;;;;5052831;28;20210;-61
2022/07/23 04:21:43;;;;;;;1.10;1.10;;;21.30;99.90;;;;;;5052081;28;20227;-62
2022/07/23 04:24:10;;;;;;;1.10;1.10;;;21.30;99.90;;;;;;5052785;28;20215;-61
2022/07/23 04:26:37;;;;;;;1.20;1.20;;;21.20;99.90;;;;;;5051911;28;20239;-61
2022/07/23 04:29:03;;;;;;;1.30;1.30;;;21.20;99.90;;;;;;5051977;28;20200;-62
2022/07/23 04:31:32;;;;;;;1.20;1.20;;;21.20;99.90;;;;;;5052556;28;20222;-62
2022/07/23 04:33:58;;;;;;;1.10;1.10;;;21.20;99.90;;;;;;5052102;28;20200;-61
2022/07/23 04:36:25;;;;;;;1.10;1.10;;;21.30;99.90;;;;;;5050879;28;20250;-61
2022/07/23 04:38:52;;;;;;;1.20;1.20;;;21.30;99.90;;;;;;5053389;28;20196;-61
2022/07/23 04:41:19;;;;;;;1.20;1.20;;;21.40;99.90;;;;;;5051535;28;20633;-61
2022/07/23 04:43:46;;;;;;;0.98;0.98;;;21.40;99.90;;;;;;5052331;28;20323;-62
2022/07/23 04:46:13;;;;;;;1.27;1.17;;;21.50;99.90;;;;;;5052690;28;20656;-62
2022/07/23 04:48:42;;;;;;;1.10;1.10;;;21.70;99.90;;;;;;5052572;28;20288;-61
2022/07/23 04:51:09;;;;;;;1.00;1.00;;;21.80;99.90;;;;;;5052867;28;20287;-62
2022/07/23 04:53:38;;;;;;;1.15;1.15;;;21.90;99.90;;;;;;5055269;28;20576;-61
2022/07/23 04:56:05;;;;;;;1.40;1.30;;;22.00;99.90;;;;;;5053287;28;20650;-61
2022/07/23 04:58:32;;;;;;;1.15;1.15;;;22.00;99.90;;;;;;5052780;28;20208;-61
2022/07/23 05:00:59;;;;;;;1.08;1.08;;;22.10;99.90;;;;;;5052123;28;20239;-61
2022/07/23 05:03:26;;;;;;;1.10;1.10;;;22.20;99.90;;;;;;5051837;28;20227;-61
2022/07/23 05:05:54;;;;;;;1.40;1.30;;;22.20;99.90;;;;;;5051731;28;20279;-61
2022/07/23 05:08:21;;;;;;;1.10;1.10;;;22.20;99.90;;;;;;5051558;28;20646;-60
2022/07/23 05:10:49;;;;;;;1.27;1.25;;;22.20;99.90;;;;;;5049534;28;20235;-61
2022/07/23 05:13:16;;;;;;;1.30;1.27;;;22.40;99.90;;;;;;5051951;28;20290;-60
2022/07/23 05:15:43;;;;;;;1.20;1.20;;;22.50;99.90;;;;;;5046085;28;20197;-59
2022/07/23 05:18:10;;;;;;;1.20;1.20;;;22.50;99.90;;;;;;5049682;28;20223;-60
2022/07/23 05:20:37;;;;;;;1.65;1.25;;;22.50;99.90;;;;;;5052004;28;20234;-61
2022/07/23 05:23:05;;;;;;;2.20;1.27;;;22.60;99.90;;;;;;5051829;28;20224;-60
2022/07/23 05:25:32;;;;;;;1.20;1.20;;;22.60;99.90;;;;;;5051613;28;20648;-58
2022/07/23 05:27:59;;;;;;;1.30;1.30;;;22.70;99.90;;;;;;5052650;28;20200;-60
2022/07/23 05:30:26;;;;;;;1.27;1.23;;;22.90;99.90;;;;;;5049615;28;20310;-60
2022/07/23 05:32:53;;;;;;;1.38;1.30;;;23.10;99.90;;;;;;5052104;28;20254;-62
2022/07/23 05:35:20;;;;;;;1.23;1.23;;;23.20;99.90;;;;;;5051993;28;20203;-62
2022/07/23 05:37:47;;;;;;;1.20;1.20;;;23.20;99.90;;;;;;5051456;28;20781;-60
2022/07/23 05:40:16;;;;;;;1.25;1.15;;;23.20;99.90;;;;;;5052258;28;20227;-63
2022/07/23 05:42:42;;;;;;;0.90;0.90;;;23.20;99.90;;;;;;5051793;28;20266;-61
2022/07/23 05:45:10;;;;;;;1.20;1.20;;;23.20;99.90;;;;;;5050908;28;20204;-61
2022/07/23 05:47:41;;;;;;;1.00;1.00;;;23.20;99.90;;;;;;5051895;28;20279;-60
2022/07/23 05:50:09;;;;;;;1.35;1.30;;;23.20;99.90;;;;;;5051436;28;20206;-60
2022/07/23 05:52:36;;;;;;;1.20;1.20;;;23.30;99.90;;;;;;5047115;28;20222;-61
2022/07/23 05:55:03;;;;;;;1.05;1.05;;;23.20;99.90;;;;;;5051145;28;20283;-61
2022/07/23 05:57:31;;;;;;;1.10;1.00;;;23.20;99.90;;;;;;5050988;28;20676;-60
2022/07/23 05:59:58;;;;;;;1.20;1.20;;;23.20;99.90;;;;;;5051422;28;20282;-61
2022/07/23 06:02:25;;;;;;;1.30;1.27;;;23.20;99.90;;;;;;5050905;28;20231;-62
2022/07/23 06:04:52;;;;;;;1.13;1.13;;;23.20;99.90;;;;;;5051344;28;20200;-61
2022/07/23 06:07:19;;;;;;;1.23;1.23;;;23.30;99.90;;;;;;5051953;28;20235;-62
2022/07/23 06:09:46;;;;;;;1.15;1.15;;;23.50;99.90;;;;;;5051041;28;20270;-62
2022/07/23 06:12:14;;;;;;;1.17;1.17;;;23.70;99.90;;;;;;5068229;22;20223;-65
2022/07/23 06:14:42;;;;;;;1.10;1.10;;;23.90;99.90;;;;;;5067043;28;20624;-65
2022/07/23 06:17:09;;;;;;;1.20;1.20;;;23.90;99.90;;;;;;5061917;28;20282;-64
2022/07/23 06:19:36;;;;;;;1.20;1.20;;;23.80;99.90;;;;;;5069532;28;20295;-64
2022/07/23 06:22:03;;;;;;;1.40;1.30;;;23.80;99.90;;;;;;5070641;28;20648;-64
2022/07/23 06:24:30;;;;;;;1.30;1.20;;;23.90;99.90;;;;;;5068822;28;20253;-65
2022/07/23 06:26:57;;;;;;;1.10;1.10;;;24.10;99.90;;;;;;5067669;28;20200;-64
2022/07/23 06:29:23;;;;;;;1.25;1.25;;;24.10;99.90;;;;;;5068238;28;20200;-66
2022/07/23 06:31:52;;;;;;;1.20;1.20;;;24.10;99.90;;;;;;5072878;28;20230;-65
2022/07/23 06:34:18;;;;;;;1.20;1.20;;;24.20;99.90;;;;;;5071831;28;20315;-65
2022/07/23 06:36:45;;;;;;;1.20;1.20;;;24.20;99.90;;;;;;5069556;28;20206;-65
2022/07/23 06:39:12;;;;;;;1.20;1.20;;;24.40;99.90;;;;;;5065486;28;20298;-65
2022/07/23 06:41:39;;;;;;;1.30;1.30;;;24.60;99.90;;;;;;5062680;28;20743;-65
2022/07/23 06:44:06;;;;;;;1.20;1.20;;;24.60;99.90;;;;;;5065919;28;20602;-66
2022/07/23 06:46:33;;;;;;;1.30;1.30;;;24.60;99.90;;;;;;5074958;28;20235;-64
2022/07/23 06:49:01;;;;;;;1.40;1.30;;;24.60;99.90;;;;;;5079003;28;20328;-64
2022/07/23 06:51:28;;;;;;;1.20;1.20;;;24.90;99.90;;;;;;5080411;28;20225;-63
2022/07/23 06:53:55;;;;;;;1.20;1.20;;;25.20;99.90;;;;;;5072214;28;20315;-63
2022/07/23 06:56:22;;;;;;;1.40;1.30;;;25.30;99.90;;;;;;5071363;28;20246;-63
2022/07/23 06:58:49;;;;;;;1.25;1.25;;;25.30;99.90;;;;;;5068100;28;20287;-62
2022/07/23 07:01:15;;;;;;;1.50;1.40;;;25.20;99.90;;;;;;5077150;28;20302;-63
2022/07/23 07:03:42;;;;;;;1.30;1.30;;;25.10;99.90;;;;;;5079315;28;20319;-63
2022/07/23 07:06:11;;;;;;;1.63;1.52;;;25.00;99.90;;;;;;5067535;28;20233;-64
2022/07/23 07:08:38;;;;;;;1.42;1.42;;;24.90;99.90;;;;;;5075445;28;20249;-62
2022/07/23 07:11:05;;;;;;;1.30;1.30;;;24.60;99.90;;;;;;5075973;28;20675;-63
2022/07/23 07:13:32;;;;;;;1.30;1.30;;;24.50;99.90;;;;;;5077774;28;20330;-64
2022/07/23 07:15:58;;;;;;;1.15;1.15;;;24.40;99.90;;;;;;5081464;28;20219;-63
2022/07/23 07:18:25;;;;;;;1.55;1.45;;;24.50;99.90;;;;;;5079476;28;20207;-63
2022/07/23 07:20:52;;;;;;;1.60;1.50;;;24.60;99.90;;;;;;5072146;28;20195;-62
2022/07/23 07:23:21;;;;;;;1.30;1.30;;;24.80;99.90;;;;;;5074071;28;20223;-61
2022/07/23 07:25:48;;;;;;;1.50;1.40;;;24.80;99.90;;;;;;5074984;28;20294;-61
2022/07/23 07:28:15;;;;;;;1.33;1.33;;;24.90;99.90;;;;;;5072031;28;20290;-62
2022/07/23 07:30:42;;;;;;;1.45;1.45;;;24.90;99.90;;;;;;5070212;28;20199;-63
2022/07/23 07:33:09;;;;;;;1.40;1.40;;;25.00;99.90;;;;;;5074776;28;20218;-62
2022/07/23 07:35:36;;;;;;;1.30;1.30;;;25.10;99.90;;;;;;5071980;28;20211;-62
2022/07/23 07:38:03;;;;;;;1.40;1.40;;;25.40;99.90;;;;;;5072857;28;20231;-64
2022/07/23 07:40:31;;;;;;;1.33;1.33;;;25.60;99.90;;;;;;5071515;28;20242;-63
2022/07/23 07:42:58;;;;;;;1.30;1.30;;;25.70;99.90;;;;;;5075106;28;20247;-63
2022/07/23 07:45:25;;;;;;;1.25;1.25;;;25.80;99.90;;;;;;5080768;28;20666;-63
2022/07/23 07:47:53;;;;;;;1.33;1.30;;;25.70;99.90;;;;;;5082132;28;20238;-63
2022/07/23 07:50:20;;;;;;;1.20;1.20;;;25.70;99.90;;;;;;5073414;28;20210;-64
2022/07/23 07:52:47;;;;;;;1.40;1.40;;;25.60;99.90;;;;;;5070168;28;20314;-63
2022/07/23 07:55:14;;;;;;;1.55;1.45;;;25.70;99.90;;;;;;5075472;28;20640;-63
2022/07/23 07:57:46;;;;;;;1.30;1.30;;;25.50;99.90;;;;;;5080957;28;20218;-63
2022/07/23 08:00:13;;;;;;;1.40;1.40;;;25.60;99.90;;;;;;5085311;28;20248;-62
2022/07/23 08:02:43;;;;;;;1.30;1.30;;;25.70;99.90;;;;;;5080368;28;20288;-65
2022/07/23 08:05:11;;;;;;;1.45;1.35;;;26.00;99.90;;;;;;5080782;28;20242;-63
2022/07/23 08:07:39;;;;;;;1.65;1.55;;;25.90;99.90;;;;;;5070714;28;20216;-63
2022/07/23 08:10:07;;;;;;;1.65;1.55;;;25.70;99.90;;;;;;5069581;28;20575;-63
2022/07/23 08:12:44;;;;;;;1.50;1.40;;;25.60;99.90;;;;;;5071614;28;20231;-63
2022/07/23 08:15:13;;;;;;;1.30;1.30;;;25.50;99.90;;;;;;5073014;28;20619;-63
2022/07/23 08:17:40;;;;;;;1.58;1.48;;;25.50;99.90;;;;;;5073438;28;20286;-63
2022/07/23 08:20:08;;;;;;;1.80;1.70;;;25.50;99.90;;;;;;5069066;28;20731;-63
2022/07/23 08:22:46;;;;;;;1.70;1.60;;;25.40;99.90;;;;;;5074259;28;20234;-66
2022/07/23 08:25:14;;;;;;;1.40;1.40;;;25.40;99.90;;;;;;5072909;28;20231;-66
2022/07/23 08:27:40;;;;;;;1.60;1.50;;;25.10;99.90;;;;;;5069057;28;20216;-66
2022/07/23 08:30:09;;;;;;;1.60;1.50;;;25.00;99.90;;;;;;5073976;28;20203;-67
2022/07/23 08:32:54;;;;;;;1.63;1.52;;;25.00;99.90;;;;;;5069733;28;20731;-66
2022/07/23 08:35:26;;;;;;;1.77;1.67;;;25.10;99.90;;;;;;5073702;28;20199;-67
2022/07/23 08:37:53;;;;;;;1.52;1.45;;;25.10;99.90;;;;;;5068033;28;20283;-67
2022/07/23 08:40:20;;;;;;;1.67;1.58;;;25.10;99.90;;;;;;5071663;28;20195;-65
2022/07/23 08:42:49;;;;;;;1.70;1.60;;;25.50;99.90;;;;;;5073726;28;20333;-68
2022/07/23 08:45:20;;;;;;;1.50;1.50;;;25.70;99.90;;;;;;5073347;28;20203;-67
2022/07/23 08:47:51;;;;;;;1.15;1.15;;;25.80;99.90;;;;;;5073285;28;20199;-67
2022/07/23 08:50:19;;;;;;;1.50;1.50;;;26.00;99.90;;;;;;5072052;28;20218;-66
2022/07/23 08:52:47;;;;;;;1.52;1.52;;;26.30;99.90;;;;;;5067739;28;20601;-65
2022/07/23 08:55:15;;;;;;;1.60;1.52;;;26.50;99.90;;;;;;5067714;28;20861;-67
2022/07/23 08:57:42;;;;;;;1.63;1.52;;;26.70;99.90;;;;;;5069888;28;20290;-66
2022/07/23 09:00:10;;;;;;;1.42;1.40;;;26.80;99.90;;;;;;5071892;28;20219;-66
2022/07/23 09:02:41;;;;;;;1.40;1.40;;;26.70;99.90;;;;;;5070091;28;20739;-68
2022/07/23 09:05:11;;;;;;;1.58;1.42;;;26.70;99.90;;;;;;5067881;28;20244;-67
2022/07/23 09:07:38;;;;;;;1.40;1.40;;;26.50;99.90;;;;;;5070617;28;20208;-67
2022/07/23 09:10:11;;;;;;;1.50;1.40;;;26.40;99.90;;;;;;5071932;28;20241;-66
2022/07/23 09:12:38;;;;;;;1.33;1.33;;;26.40;99.90;;;;;;5068654;28;20326;-67
2022/07/23 09:15:07;;;;;;;1.60;1.50;;;26.60;99.90;;;;;;5069657;28;20670;-66
2022/07/23 09:17:39;;;;;;;1.67;1.58;;;26.80;99.90;;;;;;5057155;28;20204;-67
2022/07/23 09:20:16;;;;;;;1.35;1.35;;;26.90;99.90;;;;;;5072182;28;20257;-66
2022/07/23 09:22:46;;;;;;;1.55;1.50;;;26.90;99.90;;;;;;5072512;28;20490;-65
2022/07/23 09:25:15;;;;;;;1.70;1.60;;;26.70;99.90;;;;;;5062376;28;20226;-67
2022/07/23 09:27:55;;;;;;;1.45;1.40;;;26.70;99.90;;;;;;5067493;28;20199;-67
2022/07/23 09:30:23;;;;;;;1.65;1.55;;;26.60;99.90;;;;;;5072301;28;20624;-65
2022/07/23 09:33:06;;;;;;;1.42;1.42;;;26.40;99.90;;;;;;5075539;28;20310;-66
2022/07/23 09:35:48;;;;;;;2.22;1.73;;;26.60;99.90;;;;;;5063295;28;20218;-68
2022/07/23 09:38:15;;;;;;;1.73;1.63;;;26.80;99.90;;;;;;5070639;28;20227;-66
2022/07/23 09:40:42;;;;;;;1.30;1.30;;;26.80;99.90;;;;;;5071968;28;20214;-68
2022/07/23 09:43:09;;;;;;;1.30;1.30;;;26.90;99.90;;;;;;5069308;28;20365;-67
2022/07/23 09:45:39;;;;;;;1.42;1.40;;;27.00;99.90;;;;;;5066360;28;20203;-66
2022/07/23 09:48:13;;;;;;;1.50;1.50;;;27.00;99.90;;;;;;5070788;28;20227;-68
2022/07/23 09:50:41;;;;;;;1.20;1.20;;;26.80;99.90;;;;;;5073208;28;20214;-68
2022/07/23 09:53:09;;;;;;;1.40;1.40;;;26.80;99.90;;;;;;5074393;28;20302;-68
2022/07/23 09:55:38;;;;;;;1.30;1.30;;;26.80;99.90;;;;;;5069673;28;20199;-67
2022/07/23 09:58:08;;;;;;;1.60;1.50;;;27.00;99.90;;;;;;5062931;28;20249;-67
2022/07/23 10:00:37;;;;;;;1.30;1.30;;;27.20;99.90;;;;;;5064039;28;20203;-67
2022/07/23 10:03:06;;;;;;;1.80;1.70;;;27.40;99.90;;;;;;5065311;28;20710;-67
2022/07/23 10:05:35;;;;;;;1.30;1.30;;;27.30;99.90;;;;;;5067211;28;20210;-67
2022/07/23 10:08:03;;;;;;;1.58;1.48;;;27.20;99.90;;;;;;5059027;28;20210;-68
2022/07/23 10:10:32;;;;;;;1.60;1.50;;;27.30;99.90;;;;;;5061834;28;20200;-67
2022/07/23 10:15:43;;;;;;;1.55;1.45;;;27.70;99.90;;;;;;5063387;28;20195;-66
2022/07/23 10:18:12;;;;;;;1.40;1.40;;;28.20;99.90;;;;;;5065152;28;20692;-66
2022/07/23 10:20:40;;;;;;;1.30;1.30;;;28.30;99.90;;;;;;5068608;28;20303;-66
2022/07/23 10:23:23;;;;;;;1.52;1.42;;;28.40;99.90;;;;;;5069067;28;20314;-67
2022/07/23 10:26:00;;;;;;;1.10;1.10;;;28.20;99.90;;;;;;5074421;28;20199;-67
2022/07/23 10:28:43;;;;;;;1.38;1.38;;;28.20;99.90;;;;;;5070099;28;20684;-67
2022/07/23 10:31:21;;;;;;;1.30;1.30;;;28.40;99.90;;;;;;5063872;28;20282;-66
2022/07/23 10:33:59;;;;;;;1.30;1.30;;;28.70;99.90;;;;;;5069460;28;20221;-67
2022/07/23 10:36:43;;;;;;;1.40;1.40;;;28.50;99.90;;;;;;5071392;28;20290;-67
2022/07/23 10:39:18;;;;;;;1.30;1.30;;;28.80;99.90;;;;;;5065998;28;20695;-67
2022/07/23 10:41:46;;;;;;;1.20;1.20;;;29.10;99.90;;;;;;5066947;28;20226;-66
2022/07/23 10:44:16;;;;;;;1.20;1.20;;;29.40;99.90;;;;;;5063810;28;20306;-66
2022/07/23 10:49:41;;;;;;;1.20;1.20;;;29.10;99.90;;;;;;5044171;28;20227;-67
2022/07/23 10:52:18;;;;;;;1.27;1.27;;;29.20;99.90;;;;;;5088890;28;20204;-67
2022/07/23 10:54:47;;;;;;;1.25;1.25;;;29.20;99.90;;;;;;5080958;28;20199;-65
2022/07/23 10:57:17;;;;;;;1.25;1.25;;;29.10;99.90;;;;;;5070643;28;20295;-66
2022/07/23 11:00:21;;;;;;;1.40;1.30;;;29.10;99.90;;;;;;5060175;28;20199;-66
2022/07/23 11:02:49;;;;;;;1.30;1.30;;;29.00;99.90;;;;;;5066135;28;20314;-66
2022/07/23 11:05:18;;;;;;;1.25;1.25;;;29.20;99.90;;;;;;5067323;28;20235;-67
2022/07/23 11:08:16;;;;;;;1.40;1.40;;;29.50;99.90;;;;;;5077994;28;20199;-66
2022/07/23 11:10:45;;;;;;;1.30;1.30;;;29.20;99.90;;;;;;5083823;28;20229;-67
2022/07/23 11:16:13;;;;;;;1.30;1.30;;;29.20;99.90;;;;;;5096036;28;20528;-68
2022/07/23 11:19:09;;;;;;;1.20;1.20;;;29.80;99.90;;;;;;5068608;28;20223;-66
2022/07/23 11:21:53;;;;;;;1.15;1.15;;;30.10;99.90;;;;;;5062724;28;20290;-66
2022/07/23 11:24:24;;;;;;;1.20;1.20;;;30.10;99.90;;;;;;5066354;28;20224;-66
2022/07/23 11:26:55;;;;;;;1.27;1.23;;;29.80;99.90;;;;;;5069776;28;20234;-66
2022/07/23 11:29:51;;;;;;;1.20;1.20;;;29.80;99.90;;;;;;5073936;28;20207;-65
2022/07/23 11:32:39;;;;;;;1.30;1.20;;;30.20;99.90;;;;;;5075252;28;20669;-67
2022/07/23 11:35:25;;;;;;;1.30;1.20;;;30.60;99.90;;;;;;5069619;28;20218;-66
2022/07/23 11:37:58;;;;;;;1.30;1.20;;;30.90;99.90;;;;;;5065237;28;20207;-67
2022/07/23 11:40:26;;;;;;;1.20;1.20;;;30.80;99.90;;;;;;5068923;28;20203;-66
2022/07/23 11:42:55;;;;;;;1.20;1.20;;;30.70;99.90;;;;;;5066444;28;20235;-66
2022/07/23 11:45:23;;;;;;;1.15;1.15;;;30.70;99.90;;;;;;5063908;28;20282;-67
2022/07/23 11:47:52;;;;;;;1.20;1.20;;;31.00;99.90;;;;;;5066342;28;20208;-66
2022/07/23 11:50:19;;;;;;;1.10;1.10;;;31.00;99.90;;;;;;5064342;28;20203;-66
2022/07/23 11:52:46;;;;;;;1.25;1.25;;;30.70;99.90;;;;;;5055064;28;20311;-66
2022/07/23 11:55:16;;;;;;;1.30;1.30;;;30.60;99.90;;;;;;5063119;28;20305;-67
2022/07/23 11:57:44;;;;;;;1.30;1.30;;;30.80;99.90;;;;;;5057986;28;20231;-67
2022/07/23 12:00:13;;;;;;;1.30;1.30;;;31.00;99.90;;;;;;5064391;28;20287;-67
2022/07/23 12:02:40;;;;;;;1.40;1.40;;;30.80;99.90;;;;;;5061807;28;20223;-66
2022/07/23 12:05:12;;;;;;;1.10;1.10;;;30.70;99.90;;;;;;5078313;28;20226;-67
2022/07/23 12:07:43;;;;;;;1.20;1.20;;;30.80;99.90;;;;;;5057798;28;20234;-67
2022/07/23 12:10:12;;;;;;;1.10;1.10;;;31.00;99.90;;;;;;5048838;28;20196;-68
2022/07/23 12:12:41;;;;;;;1.15;1.15;;;31.00;99.90;;;;;;5062395;28;20631;-66
2022/07/23 12:15:09;;;;;;;1.30;1.30;;;30.50;99.90;;;;;;5057783;28;20314;-65
2022/07/23 12:17:38;;;;;;;1.27;1.27;;;30.50;99.90;;;;;;5058528;28;20685;-66
2022/07/23 12:20:09;;;;;;;1.10;1.10;;;30.50;99.90;;;;;;5052233;28;20296;-67
2022/07/23 12:22:38;;;;;;;1.42;1.42;;;30.70;99.90;;;;;;5076013;28;20584;-67
2022/07/23 12:25:09;;;;;;;1.10;1.10;;;30.90;99.90;;;;;;5060921;28;20201;-67
2022/07/23 12:27:36;;;;;;;1.60;1.50;;;31.10;99.90;;;;;;5038689;28;20723;-69
2022/07/23 12:30:21;;;;;;;1.17;1.17;;;31.10;99.90;;;;;;5061594;28;20654;-68
2022/07/23 12:32:50;;;;;;;1.25;1.25;;;31.10;99.90;;;;;;5044922;28;20303;-67
2022/07/23 12:35:18;;;;;;;1.40;1.40;;;31.10;99.90;;;;;;5050409;28;20224;-67
2022/07/23 12:37:47;;;;;;;1.60;1.50;;;30.90;99.90;;;;;;5051083;28;20196;-68
2022/07/23 12:40:22;;;;;;;1.50;1.40;;;30.80;99.90;;;;;;5050525;28;20204;-67
2022/07/23 12:42:50;;;;;;;1.38;1.38;;;31.00;99.90;;;;;;5054833;28;20309;-67
2022/07/23 12:45:17;;;;;;;1.42;1.33;;;31.10;99.90;;;;;;5043706;28;20212;-66
2022/07/23 12:48:09;;;;;;;1.17;1.17;;;31.20;99.90;;;;;;5048467;28;20292;-68
2022/07/23 12:50:40;;;;;;;1.20;1.20;;;31.20;99.90;;;;;;5043801;28;20754;-65
2022/07/23 12:53:10;;;;;;;1.33;1.33;;;31.00;99.90;;;;;;5050237;28;20772;-65
2022/07/23 12:55:37;;;;;;;1.33;1.33;;;30.80;99.90;;;;;;5053177;28;20253;-65
2022/07/23 12:58:10;;;;;;;1.30;1.30;;;30.80;99.90;;;;;;5043176;28;20633;-67
2022/07/23 13:01:01;;;;;;;1.30;1.30;;;30.80;99.90;;;;;;5044090;28;20236;-67
2022/07/23 13:03:31;;;;;;;1.33;1.23;;;30.80;99.90;;;;;;5047102;28;20224;-67
2022/07/23 13:06:01;;;;;;;1.30;1.30;;;31.00;99.90;;;;;;5051578;28;20204;-65
2022/07/23 13:08:30;;;;;;;1.50;1.40;;;31.00;99.90;;;;;;5050201;28;20586;-67